createdAt,value
2023-01-19T07:06:25.839Z,10.55
2023-01-19T07:08:55.563Z,12.82
2023-01-19T07:11:31.020Z,9.73
2023-01-19T07:14:01.579Z,12.32
2023-01-19T07:16:30.185Z,12.05
2023-01-19T07:18:58.641Z,11.10
2023-01-19T07:21:29.355Z,12.50
2023-01-19T07:23:58.495Z,12.77
2023-01-19T07:26:28.095Z,11.63
2023-01-19T07:28:57.717Z,14.13
2023-01-19T07:31:26.445Z,12.48
2023-01-19T07:33:55.097Z,11.80
2023-01-19T07:36:23.501Z,11.13
2023-01-19T07:38:53.368Z,14.68
2023-01-19T07:41:21.826Z,12.77
2023-01-19T07:43:53.375Z,11.80
2023-01-19T07:46:24.225Z,14.88
2023-01-19T07:48:52.641Z,12.73
2023-01-19T07:51:21.063Z,13.40
2023-01-19T07:53:52.590Z,9.30
2023-01-19T07:56:22.110Z,12.95
2023-01-19T07:58:52.602Z,13.23
2023-01-19T08:01:21.261Z,14.00
2023-01-19T08:03:50.282Z,13.00
2023-01-19T08:06:22.151Z,13.00
2023-01-19T08:08:52.481Z,12.95
2023-01-19T08:11:23.799Z,13.15
2023-01-19T08:13:52.284Z,14.38
2023-01-19T08:16:20.711Z,11.98
2023-01-19T08:18:49.140Z,12.80
2023-01-19T08:21:17.751Z,12.90
2023-01-19T08:26:24.271Z,12.52
2023-01-19T08:28:52.725Z,12.00
2023-01-19T08:31:24.503Z,11.55
2023-01-19T08:33:53.459Z,13.95
2023-01-19T08:36:22.718Z,13.10
2023-01-19T08:38:51.187Z,12.25
2023-01-19T08:41:19.691Z,14.38
2023-01-19T08:43:49.657Z,12.57
2023-01-19T08:46:21.000Z,13.95
2023-01-19T08:48:50.410Z,12.45
2023-01-19T08:51:19.368Z,13.07
2023-01-19T08:53:47.814Z,13.40
2023-01-19T08:56:16.388Z,12.95
2023-01-19T08:58:53.617Z,13.23
2023-01-19T09:01:33.322Z,14.45
2023-01-19T09:04:01.983Z,13.80
2023-01-19T09:06:30.486Z,13.57
2023-01-19T09:08:58.940Z,13.30
2023-01-19T09:11:27.665Z,14.40
2023-01-19T09:16:25.027Z,13.50
2023-01-19T09:18:57.191Z,14.50
2023-01-19T09:21:25.642Z,14.48
2023-01-19T09:23:54.875Z,13.02
2023-01-19T09:26:23.869Z,13.98
2023-01-19T09:28:52.270Z,14.27
2023-01-19T09:31:20.862Z,14.73
2023-01-19T09:33:49.293Z,14.30
2023-01-19T09:36:19.183Z,14.38
2023-01-19T09:38:47.787Z,13.30
2023-01-19T09:41:22.441Z,13.75
2023-01-19T09:43:56.025Z,13.75
2023-01-19T09:46:31.298Z,11.20
2023-01-19T09:49:08.062Z,12.38
2023-01-19T09:51:41.226Z,11.05
2023-01-19T09:54:14.641Z,13.20
2023-01-19T09:56:43.804Z,13.70
2023-01-19T09:59:21.006Z,13.10
2023-01-19T10:02:20.668Z,14.25
2023-01-19T10:05:00.414Z,13.10
2023-01-19T10:07:53.328Z,12.65
2023-01-19T10:10:23.769Z,14.15
2023-01-19T10:13:22.855Z,12.68
2023-01-19T10:16:00.651Z,13.38
2023-01-19T10:18:39.003Z,13.93
2023-01-19T10:21:13.111Z,14.00
2023-01-19T10:23:52.320Z,13.50
2023-01-19T10:26:25.904Z,15.30
2023-01-19T10:28:59.981Z,15.35
2023-01-19T10:31:29.008Z,14.52
2023-01-19T10:33:57.507Z,14.63
2023-01-19T10:36:31.054Z,15.48
2023-01-19T10:39:04.429Z,14.82
2023-01-19T10:41:45.432Z,13.93
2023-01-19T10:44:23.847Z,16.08
2023-01-19T10:46:54.536Z,14.40
2023-01-19T10:49:27.787Z,13.80
2023-01-19T10:51:57.995Z,15.27
2023-01-19T10:54:32.813Z,15.55
2023-01-19T10:57:04.851Z,12.95
2023-01-19T10:59:36.295Z,14.90
2023-01-19T11:02:20.327Z,12.18
2023-01-19T11:04:51.372Z,13.88
2023-01-19T11:07:22.211Z,13.80
2023-01-19T11:10:22.168Z,14.98
2023-01-19T11:13:01.519Z,13.20
2023-01-19T11:15:34.999Z,11.63
2023-01-19T11:18:05.999Z,15.05
2023-01-19T11:20:44.245Z,15.25
2023-01-19T11:23:25.009Z,14.02
2023-01-19T11:25:57.851Z,14.52
2023-01-19T11:28:29.963Z,14.93
2023-01-19T11:31:00.706Z,14.50
2023-01-19T11:33:36.110Z,15.70
2023-01-19T11:36:07.627Z,14.15
2023-01-19T11:38:46.036Z,15.30
2023-01-19T11:41:20.859Z,16.02
2023-01-19T11:43:52.850Z,16.85
2023-01-19T11:46:23.919Z,15.60
2023-01-19T11:49:01.992Z,14.20
2023-01-19T11:51:37.503Z,14.18
2023-01-19T11:54:17.002Z,14.77
2023-01-19T11:56:52.178Z,16.20
2023-01-19T11:59:22.365Z,15.10
2023-01-19T12:01:55.801Z,16.85
2023-01-19T12:04:29.159Z,15.43
2023-01-19T12:07:00.462Z,16.27
2023-01-19T12:09:31.668Z,17.35
2023-01-19T12:12:05.734Z,14.35
2023-01-19T12:14:39.684Z,15.32
2023-01-19T12:17:17.556Z,15.57
2023-01-19T12:19:54.968Z,15.80
2023-01-19T12:22:28.629Z,16.20
2023-01-19T12:25:03.232Z,15.90
2023-01-19T12:27:41.278Z,17.25
2023-01-19T12:30:18.589Z,18.53
2023-01-19T12:32:47.145Z,14.82
2023-01-19T12:35:53.039Z,11.90
2023-01-19T12:38:53.679Z,14.77
2023-01-19T12:41:27.820Z,16.33
2023-01-19T12:44:25.377Z,17.30
2023-01-19T12:46:57.508Z,16.37
2023-01-19T12:49:35.935Z,17.52
2023-01-19T12:52:28.195Z,17.38
2023-01-19T12:55:01.755Z,17.08
2023-01-19T12:57:36.450Z,14.80
2023-01-19T13:00:09.342Z,15.88
2023-01-19T13:02:47.810Z,15.00
2023-01-19T13:08:16.955Z,15.15
2023-01-19T13:11:23.825Z,15.18
2023-01-19T13:14:39.501Z,18.08
2023-01-19T13:17:23.552Z,16.20
2023-01-19T13:19:59.646Z,15.90
2023-01-19T13:22:53.863Z,16.88
2023-01-19T13:25:33.732Z,15.38
2023-01-19T13:28:03.854Z,16.98
2023-01-19T13:30:36.695Z,17.50
2023-01-19T13:33:15.590Z,16.15
2023-01-19T13:35:52.839Z,16.83
2023-01-19T13:38:22.707Z,17.83
2023-01-19T13:40:52.223Z,16.65
2023-01-19T13:43:26.044Z,17.02
2023-01-19T13:45:57.327Z,16.02
2023-01-19T13:48:27.609Z,18.05
2023-01-19T13:51:01.025Z,17.52
2023-01-19T13:53:30.628Z,15.80
2023-01-19T13:56:08.483Z,16.80
2023-01-19T13:58:37.212Z,16.40
2023-01-19T14:01:05.691Z,15.90
2023-01-19T14:03:35.758Z,16.90
2023-01-19T14:06:04.523Z,16.40
2023-01-19T14:08:33.947Z,16.30
2023-01-19T14:11:03.596Z,16.73
2023-01-19T14:13:33.317Z,16.10
2023-01-19T14:16:07.016Z,17.40
2023-01-19T14:18:37.950Z,16.25
2023-01-19T14:21:09.039Z,16.40
2023-01-19T14:23:49.477Z,15.85
2023-01-19T14:26:40.300Z,16.30
2023-01-19T14:29:16.913Z,16.60
2023-01-19T14:31:46.636Z,16.80
2023-01-19T14:34:33.110Z,16.73
2023-01-19T14:37:25.433Z,14.18
2023-01-19T14:40:00.482Z,17.30
2023-01-19T14:42:32.532Z,15.90
2023-01-19T14:45:02.915Z,15.18
2023-01-19T14:47:37.077Z,13.93
2023-01-19T14:50:20.287Z,14.43
2023-01-19T14:52:55.960Z,12.77
2023-01-19T14:55:30.990Z,14.35
2023-01-19T14:57:59.661Z,12.88
2023-01-19T15:00:28.534Z,12.25
2023-01-19T15:02:57.161Z,14.25
2023-01-19T15:05:27.060Z,14.70
2023-01-19T15:07:55.654Z,15.02
2023-01-19T15:10:25.889Z,14.00
2023-01-19T15:12:56.151Z,12.88
2023-01-19T15:15:29.615Z,13.45
2023-01-19T15:17:58.960Z,13.32
2023-01-19T15:20:29.458Z,14.70
2023-01-19T15:22:57.958Z,12.85
2023-01-19T15:25:27.080Z,12.75
2023-01-19T15:27:59.969Z,12.10
2023-01-19T15:30:31.179Z,11.77
2023-01-19T15:33:00.190Z,12.00
2023-01-19T15:35:29.995Z,11.90
2023-01-19T15:37:58.668Z,12.50
2023-01-19T15:40:30.202Z,13.55
2023-01-19T15:42:58.772Z,14.90
2023-01-19T15:45:36.433Z,12.52
2023-01-19T15:48:06.838Z,12.13
2023-01-19T15:50:39.012Z,14.27
2023-01-19T15:53:08.076Z,13.30
2023-01-19T15:55:36.837Z,14.73
2023-01-19T16:00:34.954Z,14.63
2023-01-19T16:03:04.680Z,13.05
2023-01-19T16:05:42.464Z,12.93
2023-01-19T16:10:41.909Z,12.82
2023-01-19T16:13:11.056Z,11.18
2023-01-19T16:15:42.415Z,13.07
2023-01-19T16:18:11.099Z,15.15
2023-01-19T16:23:15.625Z,14.35
2023-01-19T16:25:45.962Z,14.13
2023-01-19T16:28:14.627Z,15.18
2023-01-19T16:30:43.070Z,16.23
2023-01-19T16:33:13.968Z,14.77
2023-01-19T16:35:42.711Z,14.07
2023-01-19T16:40:40.081Z,16.23
2023-01-19T16:43:10.072Z,16.13
2023-01-19T16:45:56.625Z,17.10
2023-01-19T16:48:25.499Z,17.52
2023-01-19T16:53:28.289Z,16.42
2023-01-19T16:55:57.026Z,18.50
2023-01-19T16:58:27.606Z,18.23
2023-01-19T17:00:56.353Z,16.67
2023-01-19T17:05:53.724Z,16.10
2023-01-19T17:08:22.500Z,16.95
2023-01-19T17:13:19.799Z,15.65
2023-01-19T17:15:50.452Z,15.13
2023-01-19T17:18:19.227Z,16.55
2023-01-19T17:20:50.485Z,17.33
2023-01-19T17:23:19.176Z,19.63
2023-01-19T17:28:22.122Z,18.30
2023-01-19T17:30:52.997Z,18.02
2023-01-19T17:33:23.009Z,18.00
2023-01-19T17:35:52.193Z,14.65
2023-01-19T17:38:20.893Z,16.48
2023-01-19T17:43:17.906Z,13.52
2023-01-19T17:45:46.665Z,17.58
2023-01-19T17:48:17.734Z,17.35
2023-01-19T17:50:46.558Z,17.05
2023-01-19T17:55:44.034Z,16.60
2023-01-19T17:58:13.257Z,17.52
2023-01-19T18:00:42.193Z,18.50
2023-01-19T18:03:11.193Z,18.55
2023-01-19T18:05:41.481Z,16.73
2023-01-19T18:08:11.968Z,18.67
2023-01-19T18:10:44.516Z,22.05
2023-01-19T18:13:16.576Z,19.75
2023-01-19T18:15:45.321Z,18.70
2023-01-19T18:23:14.506Z,15.60
2023-01-19T18:25:43.449Z,18.30
2023-01-19T18:28:12.259Z,18.42
2023-01-19T18:30:41.497Z,19.98
2023-01-19T18:33:10.227Z,19.10
2023-01-19T18:35:40.533Z,18.15
2023-01-19T18:38:11.679Z,15.43
2023-01-19T18:40:40.875Z,19.35
2023-01-19T18:43:09.655Z,18.70
2023-01-19T18:48:09.107Z,18.38
2023-01-19T18:50:39.782Z,16.90
2023-01-19T18:53:09.107Z,18.38
2023-01-19T18:55:39.449Z,21.15
2023-01-19T18:58:09.057Z,19.17
2023-01-19T19:00:38.316Z,21.15
2023-01-19T19:03:15.052Z,21.92
2023-01-19T19:05:44.047Z,19.40
2023-01-19T19:08:12.892Z,19.35
2023-01-19T19:13:14.399Z,18.00
2023-01-19T19:15:44.676Z,19.83
2023-01-19T19:18:14.239Z,18.15
2023-01-19T19:20:43.586Z,18.15
2023-01-19T19:23:12.929Z,19.10
2023-01-19T19:25:43.153Z,19.58
2023-01-19T19:28:12.115Z,19.60
2023-01-19T19:30:41.704Z,20.77
2023-01-19T19:33:10.459Z,19.65
2023-01-19T19:38:07.611Z,19.38
2023-01-19T19:40:36.397Z,21.08
2023-01-19T19:45:36.111Z,20.77
2023-01-19T19:48:05.187Z,21.30
2023-01-19T19:50:36.408Z,22.48
2023-01-19T19:53:05.825Z,21.33
2023-01-19T19:55:34.863Z,21.20
2023-01-19T19:58:03.785Z,22.90
2023-01-19T20:00:34.484Z,21.88
2023-01-19T20:03:03.783Z,20.25
2023-01-19T20:05:32.980Z,19.17
2023-01-19T20:08:02.579Z,22.10
2023-01-19T20:10:32.327Z,21.23
2023-01-19T20:13:01.410Z,24.25
2023-01-19T20:15:29.943Z,21.30
2023-01-19T20:18:00.239Z,21.92
2023-01-19T20:20:31.615Z,20.48
2023-01-19T20:23:00.931Z,20.13
2023-01-19T20:25:30.133Z,21.30
2023-01-19T20:27:59.500Z,20.63
2023-01-19T20:30:28.536Z,20.10
2023-01-19T20:32:57.283Z,22.17
2023-01-19T20:35:27.618Z,19.00
2023-01-19T20:37:56.625Z,23.38
2023-01-19T20:40:25.573Z,23.90
2023-01-19T20:42:54.532Z,23.08
2023-01-19T20:45:23.482Z,21.92
2023-01-19T20:47:52.681Z,20.88
2023-01-19T20:50:21.704Z,22.27
2023-01-19T20:52:51.832Z,24.27
2023-01-19T20:55:20.443Z,24.38
2023-01-19T20:57:49.365Z,23.35
2023-01-19T21:00:18.392Z,23.38
2023-01-19T21:02:47.612Z,21.15
2023-01-19T21:05:16.608Z,20.90
2023-01-19T21:07:45.567Z,21.95
2023-01-19T21:10:16.246Z,19.70
2023-01-19T21:12:48.669Z,21.35
2023-01-19T21:15:19.270Z,21.58
2023-01-19T21:17:49.739Z,19.88
2023-01-19T21:20:19.942Z,19.65
2023-01-19T21:22:53.115Z,21.25
2023-01-19T21:25:23.795Z,20.70
2023-01-19T21:27:55.032Z,18.45
2023-01-19T21:30:24.661Z,19.13
2023-01-19T21:32:53.546Z,17.80
2023-01-19T21:35:22.722Z,20.40
2023-01-19T21:37:51.812Z,17.13
2023-01-19T21:40:25.442Z,21.02
2023-01-19T21:42:54.512Z,20.63
2023-01-19T21:45:23.878Z,20.88
2023-01-19T21:47:52.668Z,20.38
2023-01-19T21:50:23.748Z,21.50
2023-01-19T21:52:53.146Z,20.55
2023-01-19T21:55:23.407Z,20.80
2023-01-19T21:57:53.605Z,19.52
2023-01-19T22:00:23.292Z,21.65
2023-01-19T22:03:03.421Z,19.45
2023-01-19T22:05:36.922Z,19.67
2023-01-19T22:08:11.149Z,22.08
2023-01-19T22:10:41.826Z,20.52
2023-01-19T22:13:10.674Z,19.45
2023-01-19T22:18:08.018Z,18.73
2023-01-19T22:20:37.106Z,17.35
2023-01-19T22:23:06.189Z,21.25
2023-01-19T22:25:36.073Z,19.33
2023-01-19T22:28:06.897Z,20.90
2023-01-19T22:30:39.295Z,17.23
2023-01-19T22:33:08.489Z,21.02
2023-01-19T22:35:37.708Z,20.92
2023-01-19T22:38:06.670Z,20.33
2023-01-19T22:40:36.822Z,19.10
2023-01-19T22:43:07.535Z,20.35
2023-01-19T22:45:43.441Z,19.17
2023-01-19T22:48:15.683Z,20.85
2023-01-19T22:50:45.403Z,21.10
2023-01-19T22:53:14.463Z,20.52
2023-01-19T22:55:43.437Z,19.90
2023-01-19T22:58:14.422Z,18.90
2023-01-19T23:00:43.743Z,20.65
2023-01-19T23:03:13.013Z,19.98
2023-01-19T23:05:42.149Z,19.75
2023-01-19T23:08:11.275Z,18.50
2023-01-19T23:10:40.744Z,20.48
2023-01-19T23:13:09.653Z,15.75
2023-01-19T23:15:40.347Z,19.60
2023-01-19T23:18:09.377Z,19.13
2023-01-19T23:20:38.397Z,19.15
2023-01-19T23:23:07.767Z,18.48
2023-01-19T23:25:36.502Z,18.80
2023-01-19T23:30:34.380Z,19.40
2023-01-19T23:33:04.918Z,18.15
2023-01-19T23:35:36.217Z,18.98
2023-01-19T23:38:05.062Z,17.13
2023-01-19T23:40:34.100Z,19.42
2023-01-19T23:43:02.881Z,18.67
2023-01-19T23:45:31.623Z,17.98
2023-01-19T23:48:00.607Z,17.98
2023-01-19T23:50:31.105Z,18.75
2023-01-19T23:53:00.336Z,18.58
2023-01-19T23:55:29.341Z,18.40
2023-01-19T23:57:58.135Z,17.88
